Time;durP1;ratioP1;P1;durP2;ratioP2;P2;SDS_P1;SDS_P2;PMS_P1;PMS_P2;Temp;Humidity;BMP_temperature;BMP_pressure;BME280_temperature;BME280_humidity;BME280_pressure;Samples;Min_cycle;Max_cycle;Signal;HPM_P1;HPM_P2
2022/11/28 00:01:14;;;;;;;2.70;2.50;;;;;;;5.12;92.87;100810.75;5073407;28;20841;-76
2022/11/28 00:03:40;;;;;;;4.63;3.30;;;;;;;5.14;93.03;100806.44;5059773;28;20048;-77
2022/11/28 00:06:08;;;;;;;5.35;3.10;;;;;;;5.14;92.96;100821.16;5055168;28;20066;-76
2022/11/28 00:08:36;;;;;;;3.67;3.30;;;;;;;5.14;93.02;100826.34;5075470;28;20042;-76
2022/11/28 00:11:09;;;;;;;3.55;2.67;;;;;;;5.15;93.00;100828.09;5077569;28;20070;-78
2022/11/28 00:13:37;;;;;;;3.40;3.10;;;;;;;5.14;93.19;100818.56;5074551;28;20048;-77
2022/11/28 00:16:08;;;;;;;3.63;3.33;;;;;;;5.16;93.71;100803.00;5083782;28;20040;-77
2022/11/28 00:18:35;;;;;;;5.70;3.63;;;;;;;5.17;93.46;100805.63;5078421;28;20043;-77
2022/11/28 00:21:11;;;;;;;4.30;3.58;;;;;;;5.16;93.88;100798.66;5079889;28;20043;-76
2022/11/28 00:23:38;;;;;;;4.18;3.65;;;;;;;5.18;93.85;100786.59;5089095;27;20050;-77
2022/11/28 00:26:18;;;;;;;3.70;3.08;;;;;;;5.16;93.52;100811.66;5087832;27;20386;-77
2022/11/28 00:28:45;;;;;;;4.93;2.88;;;;;;;5.14;93.92;100805.56;5088786;27;20069;-76
2022/11/28 00:31:18;;;;;;;3.70;2.65;;;;;;;5.13;94.03;100794.31;5091782;27;20664;-76
2022/11/28 00:33:45;;;;;;;2.80;2.40;;;;;;;5.16;93.86;100806.47;5086561;28;20039;-76
2022/11/28 00:36:13;;;;;;;3.20;2.55;;;;;;;5.17;93.26;100817.72;5090489;27;20048;-76
2022/11/28 00:38:41;;;;;;;3.05;2.75;;;;;;;5.19;93.12;100806.53;5089892;28;20169;-78
2022/11/28 00:41:12;;;;;;;4.40;3.42;;;;;;;5.19;93.35;100803.94;5092067;28;20067;-76
2022/11/28 00:43:39;;;;;;;2.92;2.65;;;;;;;5.20;93.13;100779.72;5089824;28;20050;-76
2022/11/28 00:46:07;;;;;;;3.78;2.88;;;;;;;5.23;93.04;100765.94;5083506;28;20072;-78
2022/11/28 00:48:34;;;;;;;5.57;2.72;;;;;;;5.24;93.38;100762.44;5104786;27;20046;-78
2022/11/28 00:51:19;;;;;;;2.55;2.30;;;;;;;5.26;93.85;100782.38;5084413;28;20043;-75
2022/11/28 00:53:48;;;;;;;5.00;3.55;;;;;;;5.24;93.39;100778.91;5083036;28;20771;-76
2022/11/28 00:56:19;;;;;;;4.30;2.95;;;;;;;5.26;92.73;100747.78;5069242;28;20040;-79
2022/11/28 00:58:48;;;;;;;4.63;3.42;;;;;;;5.27;92.63;100749.53;5092836;28;20091;-75
2022/11/28 01:01:22;;;;;;;3.80;3.13;;;;;;;5.27;91.90;100731.38;5076069;28;20047;-79
2022/11/28 01:03:50;;;;;;;;;;;;;;;5.27;91.52;100752.13;5089396;28;20466;-78
2022/11/28 01:06:26;;;;;;;2.78;2.58;;;;;;;5.26;91.41;100735.66;5086507;28;19927;-76
2022/11/28 01:08:53;;;;;;;4.53;3.13;;;;;;;5.24;91.86;100744.28;5072200;28;20047;-77
2022/11/28 01:11:21;;;;;;;5.18;3.38;;;;;;;5.25;91.48;100740.84;5084887;28;20048;-76
2022/11/28 01:13:48;;;;;;;4.95;3.08;;;;;;;5.26;92.03;100716.63;5090701;28;20451;-76
2022/11/28 01:16:15;;;;;;;4.35;3.42;;;;;;;5.26;91.88;100727.03;5083582;28;20031;-78
2022/11/28 01:18:42;;;;;;;5.90;2.72;;;;;;;5.25;90.20;100730.47;5089722;28;20036;-78
2022/11/28 01:21:11;;;;;;;3.47;2.80;;;;;;;5.27;90.03;100746.94;5072469;28;20546;-75
2022/11/28 01:23:38;;;;;;;3.90;2.63;;;;;;;5.29;90.70;100755.59;5096045;28;20342;-76
2022/11/28 01:26:08;;;;;;;5.03;2.70;;;;;;;5.30;90.96;100755.63;5071919;28;20150;-77
2022/11/28 01:28:35;;;;;;;4.57;2.42;;;;;;;5.31;90.63;100743.53;5102375;28;20051;-78
2022/11/28 01:31:09;;;;;;;2.65;2.20;;;;;;;5.34;89.91;100745.31;5103167;28;20092;-78
2022/11/28 01:33:35;;;;;;;5.13;2.13;;;;;;;5.35;90.31;100760.03;5104122;28;20051;-78
2022/11/28 01:36:02;;;;;;;3.35;2.72;;;;;;;5.35;90.22;100760.91;5085311;28;20072;-79
2022/11/28 01:38:29;;;;;;;2.65;2.45;;;;;;;5.36;90.71;100736.69;5082983;28;20397;-78
2022/11/28 01:40:57;;;;;;;5.22;2.92;;;;;;;5.34;90.16;100725.41;5091046;28;20048;-76
2022/11/28 01:43:25;;;;;;;4.03;2.70;;;;;;;5.32;90.16;100690.78;5092643;28;20047;-76
2022/11/28 01:45:52;;;;;;;3.78;2.78;;;;;;;5.32;90.44;100682.09;5084258;28;20127;-78
2022/11/28 01:48:31;;;;;;;3.17;2.40;;;;;;;5.27;91.26;100674.28;5094981;28;20040;-75
2022/11/28 01:51:05;;;;;;;3.33;2.83;;;;;;;5.24;91.48;100677.69;5104861;28;20059;-78
2022/11/28 01:53:35;;;;;;;1.85;1.75;;;;;;;5.21;90.52;100711.38;5089217;28;20092;-76
2022/11/28 01:56:13;;;;;;;5.00;2.63;;;;;;;5.18;91.32;100695.78;5064127;28;20492;-76
2022/11/28 01:58:43;;;;;;;3.65;2.58;;;;;;;5.19;91.38;100683.66;5082695;28;20039;-77
2022/11/28 02:01:11;;;;;;;4.63;3.25;;;;;;;5.19;90.00;100681.06;5077978;28;20482;-78
2022/11/28 02:03:45;;;;;;;2.90;2.03;;;;;;;5.23;89.39;100677.69;5093086;28;20135;-77
2022/11/28 02:06:19;;;;;;;3.78;2.60;;;;;;;5.23;89.03;100673.34;5088478;28;20772;-76
2022/11/28 02:08:46;;;;;;;2.78;2.58;;;;;;;5.24;89.00;100661.22;5100053;28;20401;-79
2022/11/28 02:11:53;;;;;;;3.00;2.00;;;;;;;5.26;88.67;100657.81;5079446;28;20150;-76
2022/11/28 02:15:06;;;;;;;2.42;2.22;;;;;;;5.28;86.79;100648.31;5101780;28;20047;-76
2022/11/28 02:18:03;;;;;;;2.50;2.30;;;;;;;5.30;86.56;100640.56;5079762;28;20180;-76
2022/11/28 02:21:03;;;;;;;3.80;2.90;;;;;;;5.33;85.50;100629.34;5106732;27;20056;-76
2022/11/28 02:24:05;;;;;;;1.85;1.75;;;;;;;5.36;85.23;100613.78;5104411;28;20036;-76
2022/11/28 02:27:32;;;;;;;2.72;2.10;;;;;;;5.37;84.25;100620.72;5110884;28;20055;-77
2022/11/28 02:30:12;;;;;;;2.35;2.15;;;;;;;5.39;84.77;100612.09;5084625;28;20064;-78
2022/11/28 02:32:57;;;;;;;3.22;2.45;;;;;;;5.40;83.14;100620.78;5100450;28;20043;-76
2022/11/28 02:35:36;;;;;;;3.95;2.35;;;;;;;5.42;82.83;100642.44;5090420;28;20073;-76
2022/11/28 02:38:27;;;;;;;3.85;2.58;;;;;;;5.46;83.01;100662.38;5097777;28;20122;-77
2022/11/28 02:41:12;;;;;;;2.30;2.10;;;;;;;5.45;83.31;100664.13;5103982;28;20043;-76
2022/11/28 02:44:00;;;;;;;4.20;2.45;;;;;;;5.47;82.77;100669.31;5102510;28;20118;-76
2022/11/28 02:46:56;;;;;;;4.30;2.63;;;;;;;5.45;83.01;100674.50;5093377;28;20043;-76
2022/11/28 02:49:32;;;;;;;2.22;2.00;;;;;;;5.46;83.04;100665.88;5100309;28;20039;-76
2022/11/28 02:52:10;;;;;;;3.42;2.67;;;;;;;5.45;83.06;100647.69;5094777;28;20039;-75
2022/11/28 02:54:39;;;;;;;2.97;2.60;;;;;;;5.45;82.52;100638.16;5096154;28;20120;-77
2022/11/28 02:57:05;;;;;;;2.50;2.22;;;;;;;5.45;82.37;100638.16;5084967;28;20051;-76
2022/11/28 02:59:47;;;;;;;5.55;2.80;;;;;;;5.45;81.96;100634.69;5110619;28;20051;-74
2022/11/28 03:02:27;;;;;;;3.20;2.78;;;;;;;5.46;81.59;100626.03;5093478;28;20046;-76
2022/11/28 03:05:20;;;;;;;4.32;2.35;;;;;;;5.43;81.35;100620.81;5099951;28;20087;-76
2022/11/28 03:08:00;;;;;;;3.75;2.72;;;;;;;5.41;81.22;100612.13;5102149;28;20028;-76
2022/11/28 03:10:45;;;;;;;3.42;2.25;;;;;;;5.43;81.34;100618.22;5096939;28;20043;-75
2022/11/28 03:13:37;;;;;;;4.88;2.42;;;;;;;5.43;81.44;100628.59;5097657;28;20031;-77
2022/11/28 03:16:29;;;;;;;4.10;2.75;;;;;;;5.41;81.71;100632.88;5111622;27;20449;-76
2022/11/28 03:19:20;;;;;;;2.88;2.55;;;;;;;5.39;81.82;100619.91;5090203;28;20036;-76
2022/11/28 03:22:09;;;;;;;3.03;2.78;;;;;;;5.37;81.82;100610.34;5078868;28;20666;-75
2022/11/28 03:25:04;;;;;;;2.88;2.10;;;;;;;5.36;82.21;100614.69;5069240;28;20047;-77
2022/11/28 03:27:36;;;;;;;;;;;;;;;5.36;81.92;100611.19;5052955;28;20052;-77
2022/11/28 03:30:15;;;;;;;3.40;2.78;;;;;;;5.34;81.81;100606.00;5069142;28;19924;-76
2022/11/28 03:32:45;;;;;;;3.45;2.97;;;;;;;5.33;82.06;100613.75;5077872;28;20055;-77
2022/11/28 03:35:20;;;;;;;5.50;2.88;;;;;;;5.33;81.83;100605.97;5071772;28;20516;-78
2022/11/28 03:37:54;;;;;;;4.18;3.80;;;;;;;5.35;81.97;100609.47;5070252;28;20128;-78
2022/11/28 03:40:32;;;;;;;3.92;3.33;;;;;;;5.33;82.27;100604.25;5071659;28;20474;-77
2022/11/28 03:43:05;;;;;;;4.32;2.47;;;;;;;5.33;82.17;100591.25;5067260;28;20423;-78
2022/11/28 03:45:39;;;;;;;4.45;3.20;;;;;;;5.30;81.85;100586.91;5068155;28;20466;-78
2022/11/28 03:48:23;;;;;;;5.20;3.35;;;;;;;5.30;81.86;100586.91;5068848;28;20493;-78
2022/11/28 03:51:05;;;;;;;4.05;3.60;;;;;;;5.33;81.05;100585.22;5067596;28;20478;-76
2022/11/28 03:54:01;;;;;;;7.47;3.22;;;;;;;5.32;80.94;100592.16;5068416;28;20402;-76
2022/11/28 03:56:49;;;;;;;6.25;3.45;;;;;;;5.33;80.61;100588.66;5083380;28;20056;-77
2022/11/28 03:59:45;;;;;;;4.25;3.47;;;;;;;5.36;80.70;100577.44;5050460;28;20074;-77
2022/11/28 04:02:36;;;;;;;4.13;3.47;;;;;;;5.39;79.82;100582.69;5021710;28;20055;-76
2022/11/28 04:05:34;;;;;;;3.25;2.90;;;;;;;5.41;80.11;100583.56;5064170;28;20088;-78
2022/11/28 04:08:17;;;;;;;3.33;3.03;;;;;;;5.40;80.21;100587.91;5086346;28;20765;-78
2022/11/28 04:11:14;;;;;;;3.45;2.83;;;;;;;5.37;80.21;100582.69;5062553;28;20032;-77
2022/11/28 04:14:06;;;;;;;3.38;2.83;;;;;;;5.37;80.66;100577.50;5067337;28;21205;-79
2022/11/28 04:16:47;;;;;;;3.63;2.63;;;;;;;5.37;80.67;100589.59;5088625;28;20743;-76
2022/11/28 04:19:49;;;;;;;5.07;3.25;;;;;;;5.35;80.43;100580.94;5053440;28;20048;-76
2022/11/28 04:22:19;;;;;;;3.65;2.78;;;;;;;5.34;80.48;100587.81;5056218;28;20060;-76
2022/11/28 04:24:53;;;;;;;3.10;2.65;;;;;;;5.35;79.99;100586.13;5060417;28;20036;-78
2022/11/28 04:27:23;;;;;;;;;;;;;;;5.34;79.88;100587.81;5063288;28;20139;-76
2022/11/28 04:29:57;;;;;;;3.95;3.05;;;;;;;5.33;80.04;100580.88;5065604;28;19928;-76
2022/11/28 04:32:26;;;;;;;3.22;2.95;;;;;;;5.32;80.01;100570.50;5062797;28;20040;-76
2022/11/28 04:34:59;;;;;;;4.30;2.97;;;;;;;5.30;80.09;100566.13;5059089;28;20040;-77
2022/11/28 04:37:28;;;;;;;5.05;2.92;;;;;;;5.29;79.73;100564.44;5060590;28;20163;-78
2022/11/28 04:39:56;;;;;;;4.45;3.72;;;;;;;5.28;80.13;100569.59;5062199;28;20044;-76
2022/11/28 04:42:45;;;;;;;5.65;3.17;;;;;;;5.27;80.26;100568.72;5061262;28;20039;-76
2022/11/28 04:45:33;;;;;;;3.67;3.17;;;;;;;5.24;79.85;100563.50;5062953;28;20044;-75
2022/11/28 04:47:59;;;;;;;3.55;3.25;;;;;;;5.22;80.20;100565.19;5062556;28;20066;-77
2022/11/28 04:50:36;;;;;;;5.40;3.75;;;;;;;5.21;80.15;100562.59;5063302;28;20705;-76
2022/11/28 04:53:18;;;;;;;4.60;2.67;;;;;;;5.19;80.12;100554.78;5056372;28;20450;-77
2022/11/28 04:56:00;;;;;;;4.65;3.13;;;;;;;5.19;80.21;100553.91;5053195;28;20040;-78
2022/11/28 04:58:40;;;;;;;3.47;2.50;;;;;;;5.17;80.40;100559.06;5062613;28;20074;-78
2022/11/28 05:01:11;;;;;;;3.05;2.85;;;;;;;5.15;80.84;100555.63;5062521;28;20048;-79
2022/11/28 05:03:39;;;;;;;6.35;3.10;;;;;;;5.14;80.86;100553.88;5042626;28;20052;-78
2022/11/28 05:06:09;;;;;;;5.82;3.45;;;;;;;5.12;80.54;100559.03;5059736;28;20031;-78
2022/11/28 05:08:35;;;;;;;4.72;2.78;;;;;;;5.10;80.39;100558.13;5063662;28;20036;-77
2022/11/28 05:11:02;;;;;;;2.92;2.47;;;;;;;5.08;80.68;100553.78;5048272;28;20670;-77
2022/11/28 05:13:28;;;;;;;2.53;2.20;;;;;;;5.07;81.06;100558.13;5054328;28;20048;-77
2022/11/28 05:15:55;;;;;;;4.72;2.72;;;;;;;5.04;81.05;100558.06;5060945;28;20055;-78
2022/11/28 05:18:21;;;;;;;5.20;2.72;;;;;;;5.04;80.80;100558.06;5067920;28;20032;-76
2022/11/28 05:20:48;;;;;;;4.05;2.88;;;;;;;5.04;80.70;100558.06;5083185;28;20099;-77
2022/11/28 05:23:14;;;;;;;4.97;3.03;;;;;;;5.04;80.62;100560.66;5088391;28;20456;-77
2022/11/28 05:25:41;;;;;;;3.05;2.55;;;;;;;5.03;80.63;100561.53;5086139;28;20044;-77
2022/11/28 05:28:11;;;;;;;5.45;3.30;;;;;;;5.02;80.62;100567.56;5089465;28;20044;-77
2022/11/28 05:30:38;;;;;;;4.82;4.40;;;;;;;5.04;80.32;100563.25;5090905;28;20196;-77
2022/11/28 05:33:04;;;;;;;2.95;2.30;;;;;;;5.05;80.18;100561.53;5091291;28;20040;-78
2022/11/28 05:35:31;;;;;;;4.68;3.63;;;;;;;5.05;80.53;100556.34;5092438;28;20043;-76
2022/11/28 05:37:57;;;;;;;8.73;5.70;;;;;;;5.04;80.19;100552.00;5090717;28;20105;-76
2022/11/28 05:40:26;;;;;;;9.18;6.13;;;;;;;5.03;80.29;100560.63;5089200;28;20146;-77
2022/11/28 05:42:53;;;;;;;5.95;5.35;;;;;;;5.05;80.22;100559.81;5075710;27;20044;-77
2022/11/28 05:45:19;;;;;;;4.10;3.65;;;;;;;5.05;79.88;100554.63;5096372;27;20050;-77
2022/11/28 05:47:46;;;;;;;4.07;3.45;;;;;;;5.05;80.29;100546.84;5095199;27;20039;-76
2022/11/28 05:50:12;;;;;;;2.70;2.50;;;;;;;5.06;80.08;100539.91;5093010;28;20184;-77
2022/11/28 05:52:40;;;;;;;2.90;2.38;;;;;;;5.05;80.29;100536.47;5091596;27;20070;-77
2022/11/28 05:55:07;;;;;;;3.45;3.17;;;;;;;5.05;79.90;100526.06;5075990;27;20042;-77
2022/11/28 05:57:34;;;;;;;3.45;2.67;;;;;;;5.04;79.84;100533.84;5093901;27;20537;-77
2022/11/28 06:00:00;;;;;;;3.85;2.55;;;;;;;5.00;79.73;100527.75;5109686;27;20048;-77
2022/11/28 06:02:27;;;;;;;2.72;2.53;;;;;;;4.97;79.64;100538.97;5094244;27;20481;-78
2022/11/28 06:04:53;;;;;;;4.05;2.75;;;;;;;4.96;79.67;100538.94;5079667;27;20048;-77
2022/11/28 06:07:20;;;;;;;3.45;2.53;;;;;;;4.94;79.82;100538.03;5096406;27;20042;-78
2022/11/28 06:09:46;;;;;;;2.88;2.17;;;;;;;4.94;79.60;100540.63;5097452;27;20040;-78
2022/11/28 06:12:13;;;;;;;5.78;3.42;;;;;;;4.95;79.61;100544.97;5100403;27;20047;-77
2022/11/28 06:14:40;;;;;;;3.85;2.75;;;;;;;4.95;79.59;100542.38;5096726;27;20046;-77
2022/11/28 06:17:06;;;;;;;3.97;2.13;;;;;;;4.95;79.35;100537.19;5077995;27;20092;-76
2022/11/28 06:19:33;;;;;;;3.15;2.95;;;;;;;4.95;79.23;100532.91;5100673;27;20044;-75
2022/11/28 06:21:59;;;;;;;2.95;2.50;;;;;;;4.93;79.09;100532.00;5082108;28;20059;-77
2022/11/28 06:24:26;;;;;;;6.07;4.25;;;;;;;4.95;78.88;100525.13;5069168;28;20905;-76
2022/11/28 06:26:53;;;;;;;3.63;3.13;;;;;;;4.95;78.94;100519.94;5075429;28;20043;-75
2022/11/28 06:29:20;;;;;;;4.05;2.22;;;;;;;4.96;78.74;100513.00;5067645;28;20043;-77
2022/11/28 06:31:47;;;;;;;3.67;2.60;;;;;;;4.95;78.71;100519.03;5059709;28;20068;-76
2022/11/28 06:34:13;;;;;;;3.65;2.38;;;;;;;4.97;79.27;100531.19;5064112;28;20482;-75
2022/11/28 06:36:40;;;;;;;2.92;2.63;;;;;;;4.99;78.80;100532.94;5087730;28;20129;-75
2022/11/28 06:39:06;;;;;;;2.15;2.03;;;;;;;5.02;78.73;100543.31;5073431;28;20052;-76
2022/11/28 06:41:33;;;;;;;3.13;2.08;;;;;;;5.03;78.75;100537.28;5072734;28;20047;-76
2022/11/28 06:43:59;;;;;;;2.72;2.50;;;;;;;5.05;78.41;100546.84;5072616;28;20044;-77
2022/11/28 06:46:26;;;;;;;5.97;2.67;;;;;;;5.08;78.70;100551.19;5071624;28;20050;-76
2022/11/28 06:48:53;;;;;;;3.15;2.85;;;;;;;5.09;79.02;100553.78;5072802;28;20063;-76
2022/11/28 06:51:20;;;;;;;2.55;2.35;;;;;;;5.09;78.38;100550.34;5071619;28;20526;-76
2022/11/28 06:53:47;;;;;;;3.55;3.25;;;;;;;5.10;79.02;100555.53;5076622;28;20115;-77
2022/11/28 06:56:18;;;;;;;3.58;3.20;;;;;;;5.11;78.61;100553.81;5071876;28;20048;-77
2022/11/28 06:58:45;;;;;;;3.60;2.58;;;;;;;5.11;78.95;100562.47;5071612;28;20803;-77
2022/11/28 07:01:18;;;;;;;3.95;3.17;;;;;;;5.13;78.62;100573.72;5085040;28;20478;-76
2022/11/28 07:03:45;;;;;;;4.53;3.08;;;;;;;5.12;78.69;100565.94;5081893;28;20040;-77
2022/11/28 07:06:14;;;;;;;6.28;3.13;;;;;;;5.12;78.76;100572.03;5053890;28;20052;-77
2022/11/28 07:08:41;;;;;;;2.90;2.60;;;;;;;5.14;79.07;100580.66;5050214;28;20036;-77
2022/11/28 07:11:11;;;;;;;4.15;3.25;;;;;;;5.16;78.94;100578.09;5066964;28;20119;-76
2022/11/28 07:13:39;;;;;;;3.58;2.95;;;;;;;5.16;79.01;100585.88;5067064;28;20052;-78
2022/11/28 07:16:07;;;;;;;3.58;2.90;;;;;;;5.16;78.83;100585.88;5045984;28;20032;-77
2022/11/28 07:18:34;;;;;;;3.28;2.83;;;;;;;5.18;78.95;100585.91;5070641;28;20844;-78
2022/11/28 07:21:01;;;;;;;3.72;2.97;;;;;;;5.19;79.35;100590.22;5060228;28;20054;-78
2022/11/28 07:23:28;;;;;;;2.80;2.60;;;;;;;5.19;79.05;100593.72;5099606;28;20043;-77
2022/11/28 07:25:59;;;;;;;5.10;3.28;;;;;;;5.20;79.25;100591.97;5109434;28;20039;-77
2022/11/28 07:28:26;;;;;;;3.50;3.03;;;;;;;5.20;79.70;100591.97;5097248;28;20116;-76
2022/11/28 07:31:16;;;;;;;3.63;3.13;;;;;;;5.21;79.75;100591.13;5100109;28;20119;-77
2022/11/28 07:33:46;;;;;;;3.17;2.75;;;;;;;5.22;79.92;100587.69;5099021;28;20050;-76
2022/11/28 07:36:23;;;;;;;5.07;3.33;;;;;;;5.23;79.59;100586.84;5107926;28;20039;-77
2022/11/28 07:38:52;;;;;;;5.18;2.80;;;;;;;5.23;79.27;100579.91;5103874;28;20050;-77
2022/11/28 07:41:19;;;;;;;3.58;3.00;;;;;;;5.24;79.09;100585.97;5102391;28;20152;-77
2022/11/28 07:43:47;;;;;;;3.20;2.90;;;;;;;5.24;79.20;100593.75;5101524;28;20095;-77
2022/11/28 07:46:19;;;;;;;4.65;2.78;;;;;;;5.25;78.98;100593.81;5100649;28;20047;-76
2022/11/28 07:48:48;;;;;;;4.63;3.58;;;;;;;5.26;78.75;100598.09;5093865;28;20062;-76
2022/11/28 07:51:18;;;;;;;2.83;2.53;;;;;;;5.29;78.78;100602.47;5107794;27;20035;-77
2022/11/28 07:53:45;;;;;;;5.15;3.63;;;;;;;5.31;78.55;100598.19;5091150;28;20399;-78
2022/11/28 07:56:19;;;;;;;4.72;3.35;;;;;;;5.33;78.40;100598.19;5090772;28;20044;-76
2022/11/28 07:58:48;;;;;;;5.75;4.38;;;;;;;5.35;78.36;100596.50;5097305;28;20073;-75
2022/11/28 08:01:27;;;;;;;11.13;5.20;;;;;;;5.34;77.87;100602.53;5081789;28;20142;-77
2022/11/28 08:03:55;;;;;;;4.85;3.70;;;;;;;5.34;78.41;100600.81;5102644;28;20043;-76
2022/11/28 08:06:26;;;;;;;5.85;4.03;;;;;;;5.37;78.31;100589.59;5082866;28;20588;-75
2022/11/28 08:08:54;;;;;;;5.32;3.53;;;;;;;5.40;78.15;100597.44;5119229;27;20476;-75
2022/11/28 08:11:23;;;;;;;7.25;4.10;;;;;;;5.42;78.02;100593.09;5102960;28;20035;-76
2022/11/28 08:13:50;;;;;;;5.47;3.50;;;;;;;5.43;78.31;100587.91;5107571;27;20047;-78
2022/11/28 08:16:23;;;;;;;4.30;3.90;;;;;;;5.45;78.15;100586.22;5089644;28;20038;-76
2022/11/28 08:18:51;;;;;;;6.20;4.28;;;;;;;5.46;78.33;100579.28;5097553;28;20130;-77
2022/11/28 08:21:25;;;;;;;6.82;4.75;;;;;;;5.48;78.79;100577.59;5088674;28;20429;-75
2022/11/28 08:23:54;;;;;;;5.30;4.35;;;;;;;5.51;78.93;100567.22;5094165;28;20040;-77
2022/11/28 08:26:24;;;;;;;4.28;3.88;;;;;;;5.52;79.03;100581.09;5088834;28;20130;-77
2022/11/28 08:28:52;;;;;;;5.28;3.60;;;;;;;5.52;78.77;100587.16;5087796;28;20094;-77
2022/11/28 08:31:26;;;;;;;7.82;4.50;;;;;;;5.54;79.19;100587.16;5086001;28;20047;-77
2022/11/28 08:33:54;;;;;;;;;;;;;;;5.54;79.42;100587.16;5071863;28;20892;-76
2022/11/28 08:36:22;;;;;;;4.97;3.60;;;;;;;5.53;79.23;100591.50;5086788;28;19997;-76
2022/11/28 08:38:49;;;;;;;5.50;4.22;;;;;;;5.56;79.23;100593.25;5085713;28;20674;-77
2022/11/28 08:41:20;;;;;;;6.13;3.72;;;;;;;5.54;79.30;100593.25;5090642;28;20402;-77
2022/11/28 08:43:47;;;;;;;4.60;4.03;;;;;;;5.57;79.00;100595.00;5091769;28;20036;-78
2022/11/28 08:46:19;;;;;;;6.40;4.50;;;;;;;5.55;79.17;100586.31;5092406;28;20197;-76
2022/11/28 08:48:47;;;;;;;6.80;3.90;;;;;;;5.56;78.92;100593.25;5091719;28;20496;-75
2022/11/28 08:51:17;;;;;;;6.88;4.35;;;;;;;5.56;79.15;100594.13;5092263;28;20039;-76
2022/11/28 08:53:44;;;;;;;7.47;5.10;;;;;;;5.58;79.29;100586.34;5087919;28;20393;-76
2022/11/28 08:56:11;;;;;;;5.13;3.83;;;;;;;5.58;79.08;100597.63;5086467;28;20372;-75
2022/11/28 08:58:38;;;;;;;6.55;4.18;;;;;;;5.60;79.50;100597.63;5091377;28;20032;-76
2022/11/28 09:01:14;;;;;;;8.32;4.05;;;;;;;5.61;79.45;100594.19;5090863;28;20058;-75
2022/11/28 09:03:41;;;;;;;6.00;3.80;;;;;;;5.63;79.31;100592.44;5088171;28;20674;-78
2022/11/28 09:06:08;;;;;;;3.88;3.45;;;;;;;5.65;79.46;100588.16;5092718;28;20042;-77
2022/11/28 09:08:34;;;;;;;3.78;3.00;;;;;;;5.67;79.01;100595.97;5094910;28;20134;-78
2022/11/28 09:11:01;;;;;;;4.38;3.83;;;;;;;5.67;79.34;100594.25;5090531;28;20130;-76
2022/11/28 09:13:27;;;;;;;6.45;4.55;;;;;;;5.70;79.45;100602.06;5090339;28;20139;-78
2022/11/28 09:15:54;;;;;;;5.18;4.00;;;;;;;5.73;79.02;100596.03;5088075;28;20043;-76
2022/11/28 09:18:20;;;;;;;7.63;4.78;;;;;;;5.75;79.17;100599.50;5077725;28;20135;-77
2022/11/28 09:20:47;;;;;;;10.93;5.45;;;;;;;5.77;79.09;100603.00;5095419;28;20055;-77
2022/11/28 09:23:13;;;;;;;9.82;4.60;;;;;;;5.78;78.99;100603.00;5093585;27;20040;-75
2022/11/28 09:25:40;;;;;;;7.22;3.90;;;;;;;5.79;79.36;100598.69;5096532;27;20055;-78
2022/11/28 09:28:08;;;;;;;5.72;3.88;;;;;;;5.82;79.44;100603.06;5094672;27;20035;-78
2022/11/28 09:30:35;;;;;;;11.50;3.80;;;;;;;5.84;79.84;100598.72;5099301;27;20132;-76
2022/11/28 09:33:01;;;;;;;6.38;4.10;;;;;;;5.84;80.19;100604.81;5102618;27;20047;-78
2022/11/28 09:35:28;;;;;;;8.18;4.65;;;;;;;5.84;80.18;100598.72;5111902;27;20100;-76
2022/11/28 09:37:54;;;;;;;6.63;4.63;;;;;;;5.87;80.23;100601.38;5092560;27;20036;-76
2022/11/28 09:40:37;;;;;;;6.88;4.18;;;;;;;5.89;80.25;100605.72;5099201;27;20032;-75
2022/11/28 09:43:18;;;;;;;8.60;4.20;;;;;;;5.93;80.40;100604.00;5101477;27;20039;-75
2022/11/28 09:45:49;;;;;;;5.25;3.60;;;;;;;5.95;79.96;100607.50;5098419;27;20051;-76
2022/11/28 09:48:50;;;;;;;6.15;4.28;;;;;;;5.98;80.20;100599.75;5090279;28;20043;-76
2022/11/28 09:51:35;;;;;;;6.60;4.10;;;;;;;6.03;79.67;100600.66;5097771;28;20111;-76
2022/11/28 09:54:15;;;;;;;8.27;4.28;;;;;;;6.05;79.76;100593.78;5100032;27;20131;-77
2022/11/28 09:56:46;;;;;;;5.90;3.65;;;;;;;6.09;79.52;100599.88;5092754;27;20039;-77
2022/11/28 09:59:30;;;;;;;6.63;3.78;;;;;;;6.11;78.91;100600.72;5093765;27;20122;-78
2022/11/28 10:02:23;;;;;;;4.07;3.63;;;;;;;6.12;78.88;100602.47;5091312;27;20047;-76
2022/11/28 10:05:19;;;;;;;5.63;3.72;;;;;;;6.14;78.89;100590.38;5096629;27;20075;-77
2022/11/28 10:08:20;;;;;;;5.68;4.03;;;;;;;6.16;78.82;100590.38;5096663;27;20413;-78
2022/11/28 10:11:09;;;;;;;8.32;4.18;;;;;;;6.19;79.14;100588.69;5096698;27;20087;-76
2022/11/28 10:13:57;;;;;;;8.77;4.35;;;;;;;6.20;78.82;100587.81;5105184;27;20569;-75
2022/11/28 10:16:48;;;;;;;6.10;4.57;;;;;;;6.24;78.79;100586.13;5092000;27;20043;-78
2022/11/28 10:19:19;;;;;;;5.97;4.57;;;;;;;6.26;79.11;100585.25;5111497;27;20036;-76
2022/11/28 10:21:55;;;;;;;6.70;3.83;;;;;;;6.29;78.87;100585.28;5083716;28;20068;-76
2022/11/28 10:24:39;;;;;;;5.90;4.28;;;;;;;6.34;78.65;100587.06;5074785;28;20040;-77
2022/11/28 10:27:07;;;;;;;4.10;3.25;;;;;;;6.33;78.33;100580.97;5071976;28;20171;-76
2022/11/28 10:29:43;;;;;;;6.22;3.70;;;;;;;6.37;78.29;100576.69;5070888;28;20047;-77
2022/11/28 10:32:17;;;;;;;6.35;3.95;;;;;;;6.39;79.19;100577.56;5089443;28;20047;-79
2022/11/28 10:35:02;;;;;;;4.18;3.78;;;;;;;6.39;79.08;100573.22;5074308;28;20052;-77
2022/11/28 10:37:31;;;;;;;6.03;4.88;;;;;;;6.37;79.51;100579.28;5072454;28;20052;-78
2022/11/28 10:40:44;;;;;;;6.78;4.47;;;;;;;6.38;80.79;100581.03;5085530;28;20047;-76
2022/11/28 10:43:34;;;;;;;9.10;5.68;;;;;;;6.36;81.88;100565.41;5080771;28;20531;-76
2022/11/28 10:46:41;;;;;;;5.18;4.07;;;;;;;6.37;83.74;100571.47;5055239;28;20048;-77
2022/11/28 10:49:23;;;;;;;8.55;4.63;;;;;;;6.34;82.37;100566.28;5087871;28;20382;-76
2022/11/28 10:52:31;;;;;;;5.25;4.10;;;;;;;6.35;82.56;100571.47;5076164;28;20062;-77
2022/11/28 10:55:11;;;;;;;6.30;4.35;;;;;;;6.36;83.24;100570.63;5072997;28;20059;-76
2022/11/28 10:57:55;;;;;;;6.80;4.38;;;;;;;6.39;82.76;100568.03;5075898;28;20437;-75
2022/11/28 11:00:22;;;;;;;7.05;4.38;;;;;;;6.42;81.70;100572.38;5066208;28;20039;-77
2022/11/28 11:02:54;;;;;;;5.90;3.67;;;;;;;6.46;81.89;100568.94;5074349;28;20114;-77
2022/11/28 11:05:31;;;;;;;8.07;4.47;;;;;;;6.48;81.18;100568.94;5070914;28;20477;-77
2022/11/28 11:08:04;;;;;;;5.50;4.13;;;;;;;6.49;80.94;100555.94;5059197;28;20044;-78
2022/11/28 11:10:37;;;;;;;6.65;4.65;;;;;;;6.53;80.88;100564.63;5079814;28;20048;-77
2022/11/28 11:13:19;;;;;;;6.80;4.70;;;;;;;6.55;80.34;100566.38;5090163;28;20040;-78
2022/11/28 11:15:50;;;;;;;7.45;4.55;;;;;;;6.60;80.24;100566.44;5078925;28;20115;-78
2022/11/28 11:18:30;;;;;;;6.10;3.50;;;;;;;6.66;80.59;100561.25;5069700;28;20419;-77
2022/11/28 11:21:20;;;;;;;6.45;5.18;;;;;;;6.70;79.76;100556.94;5080571;28;20067;-77
2022/11/28 11:23:48;;;;;;;9.05;5.18;;;;;;;6.69;79.20;100552.59;5079384;28;20055;-79
2022/11/28 11:26:30;;;;;;;6.18;4.50;;;;;;;6.71;78.66;100553.47;5103864;27;20043;-77
2022/11/28 11:28:56;;;;;;;6.22;4.50;;;;;;;6.72;78.53;100550.03;5103965;27;20447;-75
2022/11/28 11:31:31;;;;;;;13.95;5.82;;;;;;;6.72;78.33;100555.22;5101099;27;20035;-76
2022/11/28 11:34:16;;;;;;;7.00;4.45;;;;;;;6.79;78.68;100562.19;5105388;27;20460;-77
2022/11/28 11:36:43;;;;;;;6.55;4.65;;;;;;;6.79;78.15;100556.97;5098372;27;20058;-76
2022/11/28 11:39:12;;;;;;;5.18;4.15;;;;;;;6.80;77.77;100550.91;5122340;27;20040;-75
2022/11/28 11:41:48;;;;;;;5.47;4.40;;;;;;;6.81;77.63;100551.81;5096420;27;20502;-76
2022/11/28 11:44:15;;;;;;;7.38;4.97;;;;;;;6.82;77.73;100540.50;5109376;27;20062;-75
2022/11/28 11:47:04;;;;;;;7.03;4.40;;;;;;;6.84;77.14;100549.22;5109791;27;20168;-76
2022/11/28 11:49:50;;;;;;;6.50;4.63;;;;;;;6.87;77.21;100539.69;5099745;28;20096;-75
2022/11/28 11:52:26;;;;;;;6.03;4.15;;;;;;;6.93;77.39;100539.69;5093479;27;20417;-76
2022/11/28 11:55:16;;;;;;;7.80;4.85;;;;;;;7.00;76.82;100526.72;5076744;28;20549;-77
2022/11/28 11:57:54;;;;;;;6.85;4.60;;;;;;;7.05;76.42;100535.41;5112140;27;20050;-76
2022/11/28 12:00:30;;;;;;;4.82;4.32;;;;;;;7.07;76.43;100541.50;5100109;27;20104;-76
2022/11/28 12:03:00;;;;;;;6.65;4.57;;;;;;;7.08;76.06;100528.50;5105362;27;20470;-77
2022/11/28 12:05:31;;;;;;;6.50;5.15;;;;;;;7.13;76.29;100533.69;5093766;27;20031;-76
2022/11/28 12:08:16;;;;;;;7.22;5.00;;;;;;;7.16;75.82;100535.44;5088539;27;20927;-75